Home > Products > Valid Products > TAF

000
FTUS43 KIND 242300
TAFIND
TAF
KIND 242320Z 2500/2606 13012G16KT P6SM BKN150
     FM250500 16012KT 5SM -SHRA OVC050
      TEMPO 2506/2508 2SM TSRA OVC035CB
     FM250900 19010KT 3SM -SHRA VCTS OVC020CB
     FM251400 29015G22KT P6SM SCT040
     FM251600 30015G22KT P6SM FEW050
     FM260100 27008KT P6SM SCT120=



000
FTUS43 KIND 242300
TAFLAF
TAF
KLAF 242320Z 2500/2524 13012G16KT P6SM BKN150
     FM250400 16012KT 5SM -SHRA OVC050
     FM250700 19010KT 3SM -SHRA OVC020
     FM251200 28015G22KT P6SM SCT040
     FM251500 30015G22KT P6SM FEW050
      AMD LTD TO CLD VIS AND WIND 2501/2513=



000
FTUS43 KIND 242000 AAA
TAFIND
TAF AMD
KIND 242023Z 2420/2524 13015G23KT P6SM SCT150 BKN250
     FM250100 13013KT P6SM OVC100
     FM250700 16015KT 4SM -SHRA VCTS BKN025CB
     FM251000 19010KT 3SM -SHRA VCTS OVC012CB
     FM251400 32014G28KT 6SM -SHRA BR BKN025
     FM251700 32014G28KT P6SM BKN040=



000
FTUS43 KIND 241700
TAFIND
TAF
KIND 241720Z 2418/2524 13015G23KT P6SM SCT150 BKN250
     FM250100 13013KT P6SM OVC100
     FM250700 16015KT 4SM -SHRA VCTS BKN025CB
     FM251000 19010KT 3SM -SHRA VCTS OVC012CB
     FM251400 32014G28KT 6SM -SHRA BR BKN025
     FM251700 32014G28KT P6SM BKN040=



000
FTUS43 KIND 241700
TAFLAF
TAF
KLAF 241720Z 2418/2518 15014G21KT P6SM BKN150
     FM250100 12013KT P6SM OVC100
     FM250600 13012KT 4SM -SHRA BR SCT020 OVC040
     FM250800 16008KT 3SM -SHRA BR OVC012
     FM251100 33010KT 3SM -SHRA BR OVC012
     FM251400 33014G26KT P6SM BKN025
     FM251600 33014G26KT P6SM BKN040=



000
FTUS43 KIND 241400 AAA
TAFIND
TAF AMD
KIND 241415Z 2414/2518 12015G22KT P6SM SCT120 BKN250
     FM241600 14015G23KT P6SM BKN200
     FM250200 13013KT P6SM OVC100
     FM250500 14015KT 4SM -SHRA BR VCTS SCT020 OVC040CB
     FM251000 22015G23KT 3SM -SHRA BR OVC012=



000
FTUS43 KIND 241400 AAA
TAFLAF
TAF AMD
KLAF 241413Z 2414/2512 13012G21KT P6SM SCT120 BKN200
     FM241600 15015G23KT P6SM BKN150
     FM250200 12013KT P6SM OVC100
     FM250500 13012KT 4SM -SHRA BR SCT020 OVC040
     FM250900 25014G22KT 3SM -SHRA BR OVC012=



000
FTUS43 KIND 241100
TAFIND
TAF
KIND 241120Z 2412/2518 13013KT P6SM SCT120 BKN250
     FM241600 14015G23KT P6SM BKN200
     FM250200 13013KT P6SM OVC100
     FM250500 14015KT 4SM -SHRA BR VCTS SCT020 OVC040CB
     FM251000 22015G23KT 3SM -SHRA BR OVC012=



000
FTUS43 KIND 241100
TAFLAF
TAF
KLAF 241120Z 2412/2512 11011KT P6SM SCT120 BKN200
     FM241600 15015G23KT P6SM BKN150
     FM250200 12013KT P6SM OVC100
     FM250500 13012KT 4SM -SHRA BR SCT020 OVC040
     FM250900 25014G22KT 3SM -SHRA BR OVC012
      AMD LTD TO CLD VIS AND WIND TIL 241300=



000
FTUS43 KIND 240800 AAA
TAFLAF
TAF AMD
KLAF 240823Z 2408/2506 11009KT P6SM OVC120
     FM241200 13012KT P6SM BKN150
     FM241800 14015G22KT P6SM BKN100
     FM242200 16012G18KT P6SM SCT050 OVC100
     FM250000 16012G18KT 5SM SHRA OVC040
      AMD LTD TO CLD VIS AND WIND TIL 241300=



000
FTUS43 KIND 240800 AAA
TAFIND
TAF AMD
KIND 240822Z 2408/2512 11010KT P6SM OVC100
     FM241100 13012KT P6SM SCT120 BKN250
     FM241800 14015G22KT P6SM BKN100
     FM242300 16012G18KT P6SM SCT050 OVC100
     FM250200 16012G18KT 5SM SHRA OVC040
     FM251000 27012G18KT P6SM OVC020=



000
FTUS43 KIND 240500
TAFLAF
TAF
KLAF 240520Z 2406/2506 07004KT P6SM OVC100
     FM241500 13012KT P6SM BKN100
     FM241800 14015G22KT P6SM BKN100
     FM242200 16012G18KT P6SM SCT050 OVC100
     FM250000 16012G18KT 5SM SHRA OVC040
      AMD LTD TO CLD VIS AND WIND TIL 241300=



000
FTUS43 KIND 240500
TAFIND
TAF
KIND 240520Z 2406/2512 09006KT P6SM OVC100
     FM241500 13012KT P6SM BKN100
     FM241800 14015G22KT P6SM BKN100
     FM242300 16012G18KT P6SM SCT050 OVC100
     FM250200 16012G18KT 5SM SHRA OVC040
     FM251000 27012G18KT P6SM OVC020=



000
FTUS43 KIND 240200 AAB
TAFIND
TAF AMD
KIND 240220Z 2402/2506 09006KT P6SM OVC100
     FM241500 13012KT P6SM BKN100
     FM241800 14015G22KT P6SM BKN100
     FM242300 16012G18KT P6SM SCT050 OVC100
     FM250200 16012G18KT P6SM -SHRA OVC040=



000
FTUS43 KIND 240100 AAA
TAFIND
TAF AMD
KIND 240121Z 2401/2506 09006KT P6SM OVC100
     FM241500 13012KT P6SM BKN100
     FM241800 14015G22KT P6SM BKN100
     FM242300 16012G18KT P6SM SCT050 OVC100
     FM250200 16012G18KT P6SM -SHRA OVC040=



000
FTUS43 KIND 232300
TAFIND
TAF
KIND 232320Z 2400/2506 VRB04KT P6SM SKC
     FM240100 09006KT P6SM OVC100
     FM241500 13012KT P6SM BKN100
     FM241800 14015G22KT P6SM BKN100
     FM242300 16012G18KT P6SM SCT050 OVC100
     FM250200 16012G18KT P6SM -SHRA OVC040=



000
FTUS43 KIND 232300
TAFLAF
TAF
KLAF 232320Z 2400/2424 07004KT P6SM OVC100
     FM241500 13012KT P6SM BKN100
     FM241800 14015G22KT P6SM BKN100
     FM242300 16012G18KT P6SM SCT050 OVC100
      AMD LTD TO CLD VIS AND WIND 2401/2413=



000
FTUS43 KIND 232000 AAA
TAFIND
TAF AMD
KIND 232026Z 2320/2424 36005KT P6SM SCT250
     FM232300 08006KT P6SM BKN100
     FM240300 10007KT P6SM SCT060 BKN100
     FM241400 13012KT P6SM BKN100
     FM242300 16012KT P6SM VCSH OVC050=



000
FTUS43 KIND 231700
TAFLAF
TAF
KLAF 231849Z 2318/2418 01008KT P6SM SCT250
     FM232300 09007KT P6SM BKN100
     FM240300 11006KT P6SM SCT060 BKN100
     FM241400 14012KT P6SM BKN100
      AMD LTD TO CLD VIS AND WIND TIL 241300=



000
FTUS43 KIND 231700
TAFIND
TAF
KIND 231849Z 2318/2424 36005KT P6SM SCT250
     FM232300 08006KT P6SM BKN100
     FM240300 10007KT P6SM SCT060 BKN100
     FM241400 13012KT P6SM BKN100
     FM242300 16012KT P6SM VCSH OVC050=



000
FTUS43 KIND 231300 AAA
TAFIND
TAF AMD
KIND 231420Z 2314/2418 03008KT P6SM SCT250
     FM232300 07006KT P6SM BKN200
     FM240200 09006KT P6SM OVC100
     FM240800 10007KT P6SM SCT060 BKN150=



000
FTUS43 KIND 231100
TAFLAF
TAF
KLAF 231120Z 2312/2412 03005KT P6SM SCT250
     FM231600 05007KT P6SM BKN250
     FM232200 08007KT P6SM OVC150
     FM240100 10006KT P6SM OVC100
     FM240800 12006KT P6SM SCT050 BKN120
      AMD LTD TO CLD VIS AND WIND TIL 231300=



000
FTUS43 KIND 231100
TAFIND
TAF
KIND 231120Z 2312/2418 02007KT P6SM SCT250
     FM231600 03008KT P6SM BKN250
     FM232300 07006KT P6SM OVC150
     FM240200 09006KT P6SM OVC100
     FM240800 10007KT P6SM SCT060 BKN150=



000
FTUS43 KIND 230800 AAA
TAFIND
TAF AMD
KIND 230810Z 2308/2412 01008KT P6SM SKC
     FM231400 02008KT P6SM BKN250
     FM240000 07005KT P6SM OVC200
     FM240600 10006KT P6SM OVC120=



000
FTUS43 KIND 230800 AAA
TAFLAF
TAF AMD
KLAF 230810Z 2308/2406 02006KT P6SM SKC
     FM231300 05007KT P6SM BKN250
     FM240100 09006KT P6SM OVC200
      AMD LTD TO CLD VIS AND WIND TIL 231300=



000
FTUS43 KIND 230500
TAFIND
TAF
KIND 230520Z 2306/2412 02006KT P6SM SKC
     FM231400 02008KT P6SM BKN250
     FM240000 07005KT P6SM OVC200
     FM240600 10006KT P6SM OVC120=



000
FTUS43 KIND 230500
TAFLAF
TAF
KLAF 230520Z 2306/2406 02010KT P6SM SKC
     FM231300 05007KT P6SM BKN250
     FM240100 09006KT P6SM OVC200
      AMD LTD TO CLD VIS AND WIND TIL 231300=



000
FTUS43 KIND 230200 AAA
TAFIND
TAF AMD
KIND 230229Z 2302/2406 01007KT P6SM SKC
     FM231400 02008KT P6SM BKN250
     FM240000 07005KT P6SM OVC200=



000
FTUS43 KIND 222300
TAFLAF
TAF
KLAF 222325Z 2300/2324 31009KT P6SM SKC
     FM231300 05007KT P6SM BKN250
      AMD LTD TO CLD VIS AND WIND 2301/2313=



000
FTUS43 KIND 222300
TAFIND
TAF
KIND 222325Z 2300/2406 35008KT P6SM SKC
     FM231400 02008KT P6SM BKN250
     FM240000 07005KT P6SM OVC200=



000
FTUS43 KIND 222000 AAA
TAFIND
TAF AMD
KIND 222021Z 2220/2324 33013G22KT P6SM SKC
     FM222300 36011KT P6SM SKC
     FM230300 36007KT P6SM SKC
     FM231400 02008KT P6SM BKN250
     FM232200 06005KT P6SM SCT120 BKN200=



000
FTUS43 KIND 221700
TAFIND
TAF
KIND 221725Z 2218/2324 33016G24KT P6SM SKC
     FM222300 36011KT P6SM SKC
     FM230300 36007KT P6SM SKC
     FM231400 02008KT P6SM BKN250
     FM232200 06005KT P6SM SCT120 BKN200=



000
FTUS43 KIND 221700
TAFLAF
TAF
KLAF 221725Z 2218/2318 35015G23KT P6SM SKC
     FM222300 02011KT P6SM SKC
     FM230300 02005KT P6SM SKC
     FM231300 05007KT P6SM BKN250=



000
FTUS43 KIND 221400 AAB
TAFIND
TAF AMD
KIND 221425Z 2214/2318 33017G25KT P6SM SKC
     FM222300 36011KT P6SM SKC
     FM230100 36007KT P6SM SKC=



000
FTUS43 KIND 221200 AAA
TAFLAF
TAF AMD
KLAF 221238Z 2213/2312 35015G23KT P6SM SKC
     FM230100 03005KT P6SM SKC
      AMD LTD TO CLD VIS AND WIND TIL 221300=



000
FTUS43 KIND 221200 AAA
TAFIND
TAF AMD
KIND 221237Z 2213/2318 33017G25KT P6SM SCT025
     FM221500 33018G27KT P6SM FEW250
     FM230100 36007KT P6SM SKC=



000
FTUS43 KIND 221100
TAFIND
TAF
KIND 221122Z 2212/2318 31015G23KT 6SM BR SCT015 BKN035
      TEMPO 2212/2214 5SM BR SCT008 BKN015
     FM221400 33018G27KT P6SM FEW250
     FM230100 36007KT P6SM SKC=



000
FTUS43 KIND 221100
TAFLAF
TAF
KLAF 221122Z 2212/2312 34015G23KT P6SM FEW020
     FM221400 34017G27KT P6SM FEW250
     FM230100 03005KT P6SM SKC
      AMD LTD TO CLD VIS AND WIND TIL 221300=



000
FTUS43 KIND 220800 AAA
TAFLAF
TAF AMD
KLAF 220827Z 2208/2306 29010KT 5SM BR BKN020
     FM221200 34015G25KT P6SM SCT250
     FM230000 35009KT P6SM SCT250
     FM230300 01003KT P6SM SKC
      AMD LTD TO CLD VIS AND WIND TIL 221300=



000
FTUS43 KIND 220800 AAA
TAFIND
TAF AMD
KIND 220825Z 2208/2312 27010KT 6SM BR SCT025 BKN050
     FM221100 30014KT 5SM BR BKN025
     FM221400 34016G25KT P6SM SCT250
     FM230000 34012KT P6SM SCT250
     FM230300 34007KT P6SM SKC=



000
FTUS43 KIND 220500
TAFLAF
TAF
KLAF 220520Z 2206/2306 27008KT P6SM VCSH SCT025 OVC050
     FM220800 31011KT P6SM BKN035
     FM221200 35015G25KT P6SM SCT250
     FM230000 35009KT P6SM SCT250
     FM230300 01003KT P6SM SKC
      AMD LTD TO CLD VIS AND WIND TIL 221300=



000
FTUS43 KIND 220500
TAFIND
TAF
KIND 220520Z 2206/2312 25009KT P6SM VCSH SCT050 OVC080
     FM220900 29014KT P6SM BKN030
     FM221400 34016G25KT P6SM SCT250
     FM230000 34012KT P6SM SCT250
     FM230300 34007KT P6SM SKC=



000
FTUS43 KIND 220200 AAA
TAFIND
TAF AMD
KIND 220218Z 2202/2306 26008KT P6SM -SHRA OVC060
     FM220500 28010KT 6SM -SHRA OVC025
     FM220900 31014G22KT P6SM BKN030
     FM221400 34016G25KT P6SM SCT250
     FM230000 34012KT P6SM SCT250=



    US Dept of Commerce
    National Oceanic and Atmospheric Administration
    National Weather Service
    1325 East West Highway
    Silver Spring, MD 20910
    Page Author: NWS Internet Services Team
Disclaimer
Information Quality
Credits
Glossary
Privacy Policy
Freedom of Information Act (FOIA)
About Us
Career Opportunities